.
WxDataArchive / Data Records for 2006-08-26
2006-08-25 August 2006 2006-08-27

Data Records for Saturday, 26 August 2006

Time	Temp	Chill	HIndex	Humid	Dewpt	 Wind 	HiWind	WindDir	Rain 	Barom 
-----	----	-----	------	-----	-----	------	------	-------	-----	----- 
00:00	70.4	70.4	70.4	83	65.0	0	1	248	0.00	29.871 
00:05	70.4	70.4	70.4	83	65.0	0	1	248	0.00	29.871 
00:10	70.4	70.4	70.4	82	64.6	0	0	---	0.00	29.871 
00:15	70.4	70.4	70.4	82	64.6	0	0	---	0.00	29.874 
00:20	70.3	70.3	70.3	82	64.5	0	0	---	0.00	29.874 
00:25	70.3	70.3	70.3	83	64.9	0	0	---	0.00	29.874 
00:30	70.1	70.1	70.1	83	64.7	0	0	---	0.00	29.877 
00:35	69.9	69.9	69.9	84	64.8	0	0	---	0.00	29.877 
00:40	69.8	69.8	69.8	84	64.7	0	0	---	0.00	29.877 
00:45	69.6	69.6	69.6	84	64.5	0	0	---	0.00	29.881 
00:50	69.4	69.4	69.4	84	64.3	0	0	---	0.00	29.881 
00:55	69.3	69.3	69.3	84	64.2	0	0	---	0.00	29.881 
01:00	69.1	69.1	69.1	85	64.4	0	0	---	0.00	29.876 
01:05	68.9	68.9	68.9	86	64.5	0	0	---	0.00	29.876 
01:10	68.8	68.8	68.8	86	64.4	0	0	---	0.00	29.876 
01:15	68.8	68.8	68.8	86	64.4	0	0	---	0.00	29.879 
01:20	68.6	68.6	68.6	87	64.6	0	0	---	0.00	29.879 
01:25	68.6	68.6	68.6	87	64.6	0	0	---	0.00	29.879 
01:30	68.4	68.4	68.4	87	64.4	0	0	---	0.00	29.888 
01:35	68.4	68.4	68.4	88	64.7	0	0	---	0.00	29.888 
01:40	68.4	68.4	68.4	88	64.7	0	0	---	0.00	29.888 
01:45	68.4	68.4	68.4	88	64.7	0	0	---	0.00	29.879 
01:50	68.4	68.4	68.4	88	64.7	0	0	---	0.00	29.879 
01:55	68.3	68.3	68.3	88	64.6	0	0	---	0.00	29.879 
02:00	68.4	68.4	68.4	89	65.0	0	0	---	0.00	29.883 
02:05	68.3	68.3	68.3	89	64.9	0	0	---	0.00	29.883 
02:10	68.3	68.3	68.3	88	64.6	0	0	---	0.00	29.883 
02:15	68.1	68.1	68.1	88	64.4	0	0	---	0.00	29.885 
02:20	67.9	67.9	67.9	89	64.5	0	0	---	0.00	29.885 
02:25	67.8	67.8	67.8	89	64.4	0	0	---	0.00	29.885 
02:30	67.6	67.6	67.6	89	64.2	0	0	---	0.00	29.886 
02:35	67.6	67.6	67.6	90	64.6	0	0	---	0.00	29.886 
02:40	67.4	67.4	67.4	90	64.4	0	0	---	0.00	29.886 
02:45	67.3	67.3	67.3	90	64.3	0	0	---	0.00	29.888 
02:50	67.3	67.3	67.3	90	64.3	0	0	---	0.00	29.888 
02:55	67.1	67.1	67.1	90	64.1	0	0	---	0.00	29.888 
03:00	67.1	67.1	67.1	90	64.1	0	0	---	0.00	29.889 
03:05	67.1	67.1	67.1	90	64.1	0	0	---	0.00	29.889 
03:10	66.9	66.9	66.9	90	63.9	0	0	---	0.00	29.889 
03:15	66.8	66.8	66.8	91	64.1	0	0	---	0.00	29.897 
03:20	66.6	66.6	66.6	91	63.9	0	0	---	0.00	29.897 
03:25	66.6	66.6	66.6	91	63.9	0	0	---	0.00	29.897 
03:30	66.4	66.4	66.4	91	63.7	0	0	---	0.00	29.892 
03:35	66.3	66.3	66.3	91	63.6	0	0	---	0.00	29.892 
03:40	66.3	66.3	66.3	91	63.6	0	0	---	0.00	29.892 
03:45	66.1	66.1	66.1	92	63.7	0	0	---	0.00	29.894 
03:50	66.0	66.0	66.0	92	63.6	0	0	---	0.00	29.894 
03:55	65.8	65.8	65.8	92	63.4	0	0	---	0.00	29.894 
04:00	65.8	65.8	65.8	92	63.4	0	0	---	0.00	29.901 
04:05	65.6	65.6	65.6	92	63.2	0	0	---	0.00	29.901 
04:10	65.6	65.6	65.6	92	63.2	0	0	---	0.00	29.901 
04:15	65.6	65.6	65.6	92	63.2	0	0	---	0.00	29.899 
04:20	65.6	65.6	65.6	93	63.5	0	0	---	0.00	29.899 
04:25	65.5	65.5	65.5	93	63.4	0	0	---	0.00	29.899 
04:30	65.5	65.5	65.5	93	63.4	0	0	---	0.00	29.903 
04:35	65.5	65.5	65.5	93	63.4	0	0	---	0.00	29.903 
04:40	65.3	65.3	65.3	93	63.2	0	0	---	0.00	29.903 
04:45	65.2	65.2	65.2	93	63.1	0	0	---	0.00	29.901 
04:50	65.2	65.2	65.2	93	63.1	0	0	---	0.00	29.901 
04:55	65.2	65.2	65.2	94	63.4	0	0	---	0.00	29.901 
05:00	65.0	65.0	65.0	94	63.2	0	0	---	0.00	29.904 
05:05	65.0	65.0	65.0	93	62.9	0	0	---	0.00	29.904 
05:10	64.8	64.8	64.8	94	63.0	0	0	---	0.00	29.904 
05:15	64.7	64.7	64.7	94	62.9	0	0	---	0.00	29.895 
05:20	64.7	64.7	64.7	94	62.9	0	0	---	0.00	29.895 
05:25	64.5	64.5	64.5	94	62.7	0	0	---	0.00	29.895 
05:30	64.5	64.5	64.5	94	62.7	0	0	---	0.00	29.892 
05:35	64.5	64.5	64.5	94	62.7	0	0	---	0.00	29.892 
05:40	64.5	64.5	64.5	94	62.7	0	1	248	0.00	29.892 
05:45	64.5	64.5	64.5	94	62.7	0	0	---	0.00	29.888 
05:50	64.5	64.5	64.5	94	62.7	0	0	---	0.00	29.888 
05:55	64.5	64.5	64.5	94	62.7	0	1	248	0.00	29.888 
06:00	64.7	64.7	64.7	95	63.2	0	1	248	0.00	29.885 
06:05	64.7	64.7	64.7	94	62.9	0	1	248	0.00	29.885 
06:10	64.7	64.7	64.7	94	62.9	0	0	---	0.00	29.885 
06:15	64.7	64.7	64.7	94	62.9	0	0	---	0.00	29.891 
06:20	64.5	64.5	64.5	94	62.7	0	0	---	0.00	29.891 
06:25	64.3	64.3	64.3	94	62.5	0	0	---	0.00	29.891 
06:30	64.2	64.2	64.2	94	62.4	0	0	---	0.00	29.887 
06:35	64.2	64.2	64.2	94	62.4	0	0	---	0.00	29.887 
06:40	64.0	64.0	64.0	94	62.2	0	0	---	0.00	29.887 
06:45	64.0	64.0	64.0	94	62.2	0	0	---	0.00	29.892 
06:50	63.9	63.9	63.9	94	62.1	0	0	---	0.00	29.892 
06:55	63.7	63.7	63.7	94	61.9	0	0	---	0.00	29.892 
07:00	63.7	63.7	63.7	94	61.9	0	0	---	0.00	29.899 
07:05	63.7	63.7	63.7	94	61.9	0	0	---	0.00	29.899 
07:10	63.7	63.7	63.7	94	61.9	0	0	---	0.00	29.899 
07:15	63.5	63.5	63.5	94	61.7	0	0	---	0.00	29.911 
07:20	63.5	63.5	63.5	94	61.7	0	0	---	0.00	29.911 
07:25	63.5	63.5	63.5	94	61.7	0	0	---	0.00	29.911 
07:30	63.5	63.5	63.5	94	61.7	0	0	---	0.00	29.918 
07:35	63.9	63.9	63.9	95	62.4	0	1	248	0.00	29.918 
07:40	64.0	64.0	64.0	94	62.2	0	1	248	0.00	29.918 
07:45	64.2	64.2	64.2	94	62.4	0	0	---	0.00	29.924 
07:50	64.3	64.3	64.3	94	62.5	0	0	---	0.00	29.924 
07:55	64.5	64.5	64.5	93	62.4	0	0	---	0.00	29.924 
08:00	64.8	64.8	64.8	93	62.7	0	0	---	0.00	29.927 
08:05	65.2	65.2	65.2	93	63.1	0	1	248	0.00	29.927 
08:10	65.5	65.5	65.5	91	62.8	0	1	248	0.00	29.927 
08:15	65.8	65.8	65.8	90	62.8	0	1	248	0.00	29.931 
08:20	66.4	66.4	66.4	88	62.7	0	1	248	0.00	29.931 
08:25	66.9	66.9	66.9	86	62.6	0	2	248	0.00	29.931 
08:30	67.6	67.6	67.6	84	62.6	0	2	248	0.00	29.929 
08:35	67.9	67.9	67.9	84	62.9	1	2	248	0.00	29.929 
08:40	68.4	68.4	68.4	83	63.0	0	2	248	0.00	29.929 
08:45	69.1	69.1	69.1	81	63.0	0	2	248	0.00	29.929 
08:50	69.4	69.4	69.4	81	63.3	1	2	248	0.00	29.929 
08:55	69.9	69.9	69.9	81	63.8	1	2	248	0.00	29.929 
09:00	70.3	70.3	70.3	80	63.8	0	1	248	0.00	29.934 
09:05	70.6	70.6	70.6	79	63.8	0	2	248	0.00	29.934 
09:10	70.9	70.9	70.9	79	64.1	0	2	248	0.00	29.934 
09:15	71.1	71.1	71.1	80	64.6	0	2	202	0.00	29.935 
09:20	71.3	71.3	71.3	79	64.4	0	2	202	0.00	29.935 
09:25	71.6	71.6	71.6	78	64.4	1	3	180	0.00	29.935 
09:30	72.0	72.0	72.0	80	65.5	0	3	135	0.00	29.935 
09:35	72.3	72.3	72.3	78	65.0	0	2	135	0.00	29.935 
09:40	72.7	72.7	72.7	78	65.4	1	2	135	0.00	29.935 
09:45	72.8	72.8	72.8	78	65.5	2	3	90	0.00	29.931 
09:50	73.2	73.2	73.2	77	65.5	1	3	90	0.00	29.931 
09:55	73.7	73.7	73.7	76	65.6	0	1	90	0.00	29.931 
10:00	74.2	74.2	74.2	75	65.8	1	3	90	0.00	29.940 
10:05	74.7	74.7	74.7	75	66.2	1	2	248	0.00	29.940 
10:10	75.3	75.3	76.6	74	66.4	0	2	248	0.00	29.940 
10:15	76.0	76.0	77.5	73	66.7	1	2	248	0.00	29.941 
10:20	76.5	76.5	78.1	73	67.2	1	2	270	0.00	29.941 
10:25	77.0	77.0	78.7	72	67.3	0	2	270	0.00	29.941 
10:30	77.6	77.6	79.5	70	67.0	1	3	90	0.00	29.938 
10:35	77.9	77.9	79.9	69	66.9	1	3	248	0.00	29.938 
10:40	78.6	78.6	80.8	69	67.6	1	2	248	0.00	29.938 
10:45	79.0	79.0	81.3	69	67.9	1	3	248	0.00	29.935 
10:50	79.4	79.4	81.8	68	67.9	0	2	248	0.00	29.935 
10:55	79.8	79.8	82.2	66	67.4	1	3	112	0.00	29.935 
11:00	80.1	80.1	82.6	66	67.7	1	4	112	0.00	29.939 
11:05	80.3	80.3	82.9	66	67.9	0	2	112	0.00	29.939 
11:10	80.7	80.7	83.4	65	67.8	1	3	112	0.00	29.939 
11:15	81.1	81.1	84.0	65	68.2	1	3	112	0.00	29.936 
11:20	81.1	81.1	83.8	64	67.7	1	3	248	0.00	29.936 
11:25	81.2	81.2	84.0	64	67.8	1	5	248	0.00	29.936 
11:30	81.6	81.6	84.7	65	68.7	2	4	90	0.00	29.932 
11:35	81.8	81.8	84.7	63	67.9	2	5	90	0.00	29.932 
11:40	82.4	82.4	85.8	64	69.0	1	4	248	0.00	29.932 
11:45	82.8	82.8	86.3	63	68.9	1	2	180	0.00	29.931 
11:50	83.2	83.2	86.7	62	68.8	1	4	90	0.00	29.931 
11:55	83.0	83.0	86.4	62	68.6	1	3	112	0.00	29.931 
12:00	83.0	83.0	86.4	62	68.6	0	2	68	0.00	29.933 
12:05	83.2	83.2	86.9	63	69.3	1	2	292	0.00	29.933 
12:10	83.2	83.2	86.5	61	68.3	1	4	0	0.00	29.933 
12:15	83.2	83.2	86.7	62	68.8	1	4	90	0.00	29.929 
12:20	83.0	83.0	86.4	62	68.6	1	3	270	0.00	29.929 
12:25	83.0	83.0	86.4	62	68.6	1	3	270	0.00	29.929 
12:30	83.0	83.0	86.1	61	68.1	1	3	248	0.00	29.927 
12:35	83.0	83.0	86.4	62	68.6	1	2	248	0.00	29.927 
12:40	83.2	83.2	86.7	62	68.8	1	3	248	0.00	29.927 
12:45	83.0	83.0	86.4	62	68.6	2	5	90	0.00	29.921 
12:50	83.0	83.0	86.4	62	68.6	1	3	270	0.00	29.921 
12:55	83.0	83.0	86.4	62	68.6	1	2	270	0.00	29.921 
13:00	83.2	83.2	86.5	61	68.3	0	4	270	0.00	29.917 
13:05	83.2	83.2	86.2	60	67.8	1	2	292	0.00	29.917 
13:10	83.0	83.0	85.9	60	67.7	1	2	292	0.00	29.917 
13:15	83.0	83.0	85.9	60	67.7	1	4	90	0.00	29.921 
13:20	83.0	83.0	86.1	61	68.1	0	2	90	0.00	29.921 
13:25	83.0	83.0	86.1	61	68.1	1	3	90	0.00	29.921 
13:30	82.8	82.8	85.6	60	67.5	2	3	90	0.00	29.925 
13:35	82.6	82.6	85.3	60	67.3	2	6	248	0.00	29.925 
13:40	82.6	82.6	85.5	61	67.8	1	4	292	0.00	29.925 
13:45	82.6	82.6	85.5	61	67.8	1	5	248	0.00	29.923 
13:50	82.2	82.2	84.9	61	67.4	2	7	248	0.00	29.923 
13:55	82.2	82.2	85.3	63	68.3	2	4	248	0.00	29.923 
14:00	82.2	82.2	85.1	62	67.9	2	4	248	0.00	29.920 
14:05	82.0	82.0	85.0	63	68.1	2	4	270	0.00	29.920 
14:10	81.6	81.6	84.6	64	68.2	2	5	270	0.00	29.920 
14:15	81.6	81.6	84.6	64	68.2	1	4	248	0.00	29.915 
14:20	81.8	81.8	85.1	65	68.9	1	3	248	0.00	29.915 
14:25	81.8	81.8	84.9	64	68.4	1	4	270	0.00	29.915 
14:30	81.8	81.8	84.7	63	67.9	1	6	248	0.00	29.913 
14:35	81.8	81.8	84.7	63	67.9	1	3	248	0.00	29.913 
14:40	81.8	81.8	84.9	64	68.4	1	6	270	0.00	29.913 
14:45	81.8	81.8	84.9	64	68.4	1	3	248	0.00	29.910 
14:50	81.6	81.6	84.7	65	68.7	2	6	248	0.00	29.910 
14:55	79.2	79.2	81.6	69	68.1	4	10	270	0.00	29.910 
15:00	77.2	77.2	79.0	76	69.0	4	9	270	0.03	29.938 
15:05	75.4	75.4	75.9	82	69.5	1	3	248	0.03	29.938 
15:10	74.4	74.4	74.4	86	69.9	0	1	248	0.06	29.938 
15:15	73.9	73.9	73.9	88	70.1	0	1	248	0.08	29.942 
15:20	73.3	73.3	73.3	88	69.5	0	1	248	0.11	29.942 
15:25	72.8	72.8	72.8	90	69.7	0	1	248	0.01	29.942 
15:30	72.8	72.8	72.8	91	70.0	0	1	248	0.00	29.935 
15:35	73.0	73.0	73.0	92	70.5	0	1	248	0.00	29.935 
15:40	73.2	73.2	73.2	92	70.7	0	2	248	0.00	29.935 
15:45	73.5	73.5	73.5	93	71.3	0	2	248	0.00	29.928 
15:50	73.5	73.5	73.5	92	71.0	1	2	248	0.00	29.928 
15:55	73.3	73.3	73.3	92	70.8	0	2	248	0.00	29.928 
16:00	73.3	73.3	73.3	92	70.8	0	1	248	0.00	29.922 
16:05	73.5	73.5	73.5	92	71.0	0	0	---	0.01	29.922 
16:10	73.5	73.5	73.5	92	71.0	0	1	248	0.00	29.922 
16:15	73.3	73.3	73.3	92	70.8	0	1	248	0.00	29.915 
16:20	73.5	73.5	73.5	92	71.0	0	1	248	0.00	29.915 
16:25	73.5	73.5	73.5	92	71.0	0	1	248	0.00	29.915 
16:30	73.7	73.7	73.7	92	71.2	0	1	248	0.00	29.904 
16:35	73.9	73.9	73.9	92	71.4	0	1	248	0.00	29.904 
16:40	73.9	73.9	73.9	92	71.4	0	1	248	0.00	29.904 
16:45	73.9	73.9	73.9	90	70.8	1	2	248	0.00	29.897 
16:50	74.0	74.0	74.0	90	70.9	0	1	248	0.00	29.897 
16:55	74.0	74.0	74.0	89	70.5	0	1	248	0.00	29.897 
17:00	74.2	74.2	74.2	89	70.7	0	1	248	0.00	29.894 
17:05	74.2	74.2	74.2	89	70.7	0	1	248	0.00	29.894 
17:10	74.2	74.2	74.2	89	70.7	0	1	248	0.00	29.894 
17:15	74.2	74.2	74.2	89	70.7	0	0	---	0.00	29.897 
17:20	74.2	74.2	74.2	89	70.7	0	1	248	0.00	29.897 
17:25	74.4	74.4	74.4	89	70.9	0	1	248	0.00	29.897 
17:30	74.2	74.2	74.2	88	70.4	0	2	248	0.00	29.898 
17:35	74.6	74.6	74.6	88	70.8	1	2	248	0.00	29.898 
17:40	74.7	74.7	74.7	89	71.2	0	1	248	0.00	29.898 
17:45	74.9	74.9	74.9	89	71.4	0	1	248	0.00	29.896 
17:50	74.9	74.9	74.9	88	71.1	0	1	248	0.00	29.896 
17:55	75.1	75.1	74.7	87	71.0	0	2	248	0.00	29.896 
18:00	75.1	75.1	74.7	87	71.0	0	1	248	0.00	29.896 
18:05	75.1	75.1	74.9	86	70.6	0	1	248	0.00	29.896 
18:10	74.9	74.9	74.9	86	70.4	0	1	248	0.00	29.896 
18:15	74.9	74.9	74.9	86	70.4	0	1	248	0.00	29.895 
18:20	74.7	74.7	74.7	86	70.2	0	0	---	0.00	29.895 
18:25	74.7	74.7	74.7	87	70.6	0	1	248	0.00	29.895 
18:30	74.7	74.7	74.7	87	70.6	0	1	248	0.00	29.892 
18:35	74.7	74.7	74.7	87	70.6	0	1	225	0.00	29.892 
18:40	74.7	74.7	74.7	87	70.6	0	1	225	0.00	29.892 
18:45	74.7	74.7	74.7	87	70.6	0	2	180	0.00	29.894 
18:50	74.9	74.9	74.9	87	70.8	0	2	180	0.00	29.894 
18:55	74.7	74.7	74.7	87	70.6	1	2	135	0.00	29.894 
19:00	74.7	74.7	74.7	88	70.9	0	2	135	0.00	29.894 
19:05	74.7	74.7	74.7	88	70.9	0	1	135	0.00	29.894 
19:10	74.7	74.7	74.7	88	70.9	1	2	135	0.00	29.894 
19:15	74.7	74.7	74.7	88	70.9	0	1	135	0.00	29.893 
19:20	74.7	74.7	74.7	88	70.9	0	2	112	0.00	29.893 
19:25	74.7	74.7	74.7	88	70.9	1	2	112	0.00	29.893 
19:30	74.7	74.7	74.7	88	70.9	0	1	112	0.00	29.891 
19:35	74.7	74.7	74.7	88	70.9	0	1	112	0.01	29.891 
19:40	74.6	74.6	74.6	89	71.1	0	1	112	0.01	29.891 
19:45	74.6	74.6	74.6	90	71.5	0	1	112	0.00	29.900 
19:50	74.6	74.6	74.6	91	71.8	0	2	112	0.00	29.900 
19:55	74.4	74.4	74.4	90	71.3	1	2	112	0.01	29.900 
20:00	74.2	74.2	74.2	90	71.1	1	3	112	0.00	29.898 
20:05	74.0	74.0	74.0	89	70.5	2	7	90	0.01	29.898 
20:10	73.7	73.7	73.7	89	70.2	1	4	90	0.01	29.898 
20:15	73.5	73.5	73.5	90	70.4	0	3	22	0.00	29.899 
20:20	73.2	73.2	73.2	90	70.1	1	4	68	0.00	29.899 
20:25	72.8	72.8	72.8	90	69.7	1	2	68	0.01	29.899 
20:30	72.5	72.5	72.5	89	69.1	1	3	68	0.00	29.889 
20:35	72.3	72.3	72.3	89	68.9	1	3	90	0.01	29.889 
20:40	72.1	72.1	72.1	90	69.0	0	1	90	0.00	29.889 
20:45	72.1	72.1	72.1	90	69.0	0	1	90	0.00	29.879 
20:50	72.0	72.0	72.0	91	69.2	0	1	90	0.00	29.879 
20:55	71.8	71.8	71.8	91	69.0	0	0	---	0.00	29.879 
21:00	71.6	71.6	71.6	92	69.1	0	1	90	0.00	29.879 
21:05	71.6	71.6	71.6	92	69.1	0	1	90	0.00	29.879 
21:10	71.5	71.5	71.5	92	69.0	0	0	---	0.00	29.879 
21:15	71.5	71.5	71.5	92	69.0	0	0	---	0.00	29.875 
21:20	71.5	71.5	71.5	92	69.0	0	1	90	0.00	29.875 
21:25	71.5	71.5	71.5	93	69.4	0	1	90	0.00	29.875 
21:30	71.3	71.3	71.3	93	69.2	0	0	---	0.00	29.874 
21:35	71.3	71.3	71.3	93	69.2	0	0	---	0.00	29.874 
21:40	71.3	71.3	71.3	93	69.2	0	0	---	0.00	29.874 
21:45	71.3	71.3	71.3	93	69.2	0	2	90	0.00	29.877 
21:50	71.3	71.3	71.3	93	69.2	0	1	90	0.00	29.877 
21:55	71.3	71.3	71.3	93	69.2	0	0	---	0.00	29.877 
22:00	71.3	71.3	71.3	93	69.2	0	0	---	0.00	29.879 
22:05	71.1	71.1	71.1	93	69.0	0	0	---	0.00	29.879 
22:10	71.1	71.1	71.1	94	69.3	0	0	---	0.00	29.879 
22:15	71.1	71.1	71.1	94	69.3	0	0	---	0.00	29.888 
22:20	71.1	71.1	71.1	94	69.3	0	0	---	0.00	29.888 
22:25	71.3	71.3	71.3	94	69.5	0	0	---	0.00	29.888 
22:30	71.3	71.3	71.3	94	69.5	1	2	90	0.00	29.905 
22:35	71.3	71.3	71.3	94	69.5	2	3	270	0.00	29.905 
22:40	71.3	71.3	71.3	94	69.5	1	2	270	0.11	29.905 
22:45	71.3	71.3	71.3	94	69.5	1	3	270	0.07	29.910 
22:50	71.3	71.3	71.3	95	69.8	1	2	315	0.03	29.910 
22:55	71.3	71.3	71.3	95	69.8	0	1	315	0.02	29.910 
23:00	71.3	71.3	71.3	95	69.8	0	0	---	0.02	29.907 
23:05	71.3	71.3	71.3	95	69.8	0	0	---	0.03	29.907 
23:10	71.3	71.3	71.3	95	69.8	0	1	315	0.03	29.907 
23:15	71.3	71.3	71.3	95	69.8	0	1	315	0.00	29.901 
23:20	71.3	71.3	71.3	95	69.8	0	1	315	0.00	29.901 
23:25	71.3	71.3	71.3	95	69.8	0	1	315	0.00	29.901 
23:30	71.3	71.3	71.3	95	69.8	0	1	315	0.00	29.895 
23:35	71.3	71.3	71.3	95	69.8	0	0	---	0.00	29.895 
23:40	71.3	71.3	71.3	95	69.8	0	2	315	0.00	29.895 
23:45	71.3	71.3	71.3	95	69.8	0	1	315	0.00	29.890 
23:50	71.3	71.3	71.3	95	69.8	1	2	315	0.00	29.890 
23:55	71.3	71.3	71.3	95	69.8	1	2	315	0.00	29.890 

CoCoRaHS
IN-AL-39
A2 Web Hosting
Creative Commons License
GoDaddy
Look for:

loaded 2017-12-11 12:27:30 • last modified 2010-11-18 10:43:29
Privacy PolicyDisclaimer
• wx.awcolley.com is powered by PmWiki v.2002016 •
• all content (unless otherwise noted) © 2017 A W Colley